sensor_id;sensor_type;location;lat;lon;timestamp;P1;durP1;ratioP1;P2;durP2;ratioP2
15553;SDS011;7878;44.632;10.942;2022-11-20T00:01:04;46.87;;;25.63;;
15553;SDS011;7878;44.632;10.942;2022-11-20T00:03:35;44.83;;;26.70;;
15553;SDS011;7878;44.632;10.942;2022-11-20T00:06:01;47.73;;;25.83;;
15553;SDS011;7878;44.632;10.942;2022-11-20T00:08:27;48.53;;;26.97;;
15553;SDS011;7878;44.632;10.942;2022-11-20T00:10:53;47.40;;;26.83;;
15553;SDS011;7878;44.632;10.942;2022-11-20T00:13:19;44.73;;;26.20;;
15553;SDS011;7878;44.632;10.942;2022-11-20T00:15:44;54.23;;;27.13;;
15553;SDS011;7878;44.632;10.942;2022-11-20T00:18:10;49.73;;;26.80;;
15553;SDS011;7878;44.632;10.942;2022-11-20T00:20:35;54.13;;;27.90;;
15553;SDS011;7878;44.632;10.942;2022-11-20T00:23:01;46.80;;;27.03;;
15553;SDS011;7878;44.632;10.942;2022-11-20T00:25:27;52.83;;;27.87;;
15553;SDS011;7878;44.632;10.942;2022-11-20T00:27:52;48.40;;;26.90;;
15553;SDS011;7878;44.632;10.942;2022-11-20T00:30:18;54.83;;;27.50;;
15553;SDS011;7878;44.632;10.942;2022-11-20T00:32:44;44.87;;;26.50;;
15553;SDS011;7878;44.632;10.942;2022-11-20T00:35:09;49.37;;;27.17;;
15553;SDS011;7878;44.632;10.942;2022-11-20T00:37:35;45.37;;;27.23;;
15553;SDS011;7878;44.632;10.942;2022-11-20T00:40:00;48.60;;;27.23;;
15553;SDS011;7878;44.632;10.942;2022-11-20T00:42:26;49.60;;;27.73;;
15553;SDS011;7878;44.632;10.942;2022-11-20T00:44:52;52.27;;;26.70;;
15553;SDS011;7878;44.632;10.942;2022-11-20T00:47:17;48.17;;;26.77;;
15553;SDS011;7878;44.632;10.942;2022-11-20T00:49:43;56.50;;;28.07;;
15553;SDS011;7878;44.632;10.942;2022-11-20T00:52:09;50.60;;;26.50;;
15553;SDS011;7878;44.632;10.942;2022-11-20T00:54:34;44.57;;;26.27;;
15553;SDS011;7878;44.632;10.942;2022-11-20T00:57:00;47.80;;;27.40;;
15553;SDS011;7878;44.632;10.942;2022-11-20T00:59:25;49.90;;;26.80;;
15553;SDS011;7878;44.632;10.942;2022-11-20T01:01:51;49.03;;;25.80;;
15553;SDS011;7878;44.632;10.942;2022-11-20T01:04:16;50.57;;;27.63;;
15553;SDS011;7878;44.632;10.942;2022-11-20T01:06:42;49.90;;;27.77;;
15553;SDS011;7878;44.632;10.942;2022-11-20T01:09:10;48.90;;;26.13;;
15553;SDS011;7878;44.632;10.942;2022-11-20T01:11:39;50.80;;;26.20;;
15553;SDS011;7878;44.632;10.942;2022-11-20T01:14:26;43.77;;;25.83;;
15553;SDS011;7878;44.632;10.942;2022-11-20T01:16:52;49.47;;;27.63;;
15553;SDS011;7878;44.632;10.942;2022-11-20T01:19:19;53.20;;;26.70;;
15553;SDS011;7878;44.632;10.942;2022-11-20T01:21:48;48.10;;;25.43;;
15553;SDS011;7878;44.632;10.942;2022-11-20T01:24:16;53.27;;;27.20;;
15553;SDS011;7878;44.632;10.942;2022-11-20T01:26:43;46.33;;;27.80;;
15553;SDS011;7878;44.632;10.942;2022-11-20T01:29:14;50.33;;;27.10;;
15553;SDS011;7878;44.632;10.942;2022-11-20T01:31:42;49.67;;;26.67;;
15553;SDS011;7878;44.632;10.942;2022-11-20T01:34:12;51.77;;;27.43;;
15553;SDS011;7878;44.632;10.942;2022-11-20T01:36:40;47.70;;;26.60;;
15553;SDS011;7878;44.632;10.942;2022-11-20T01:39:10;46.80;;;25.37;;
15553;SDS011;7878;44.632;10.942;2022-11-20T01:41:42;46.00;;;25.13;;
15553;SDS011;7878;44.632;10.942;2022-11-20T01:47:09;44.73;;;25.60;;
15553;SDS011;7878;44.632;10.942;2022-11-20T01:49:40;47.23;;;26.13;;
15553;SDS011;7878;44.632;10.942;2022-11-20T01:52:24;46.70;;;26.63;;
15553;SDS011;7878;44.632;10.942;2022-11-20T01:55:19;45.80;;;26.80;;
15553;SDS011;7878;44.632;10.942;2022-11-20T01:57:56;46.50;;;26.27;;
15553;SDS011;7878;44.632;10.942;2022-11-20T02:00:22;44.03;;;26.87;;
15553;SDS011;7878;44.632;10.942;2022-11-20T02:02:50;42.60;;;25.40;;
15553;SDS011;7878;44.632;10.942;2022-11-20T02:05:27;50.43;;;26.77;;
15553;SDS011;7878;44.632;10.942;2022-11-20T02:07:57;45.23;;;26.13;;
15553;SDS011;7878;44.632;10.942;2022-11-20T02:10:24;46.53;;;27.47;;
15553;SDS011;7878;44.632;10.942;2022-11-20T02:12:51;48.70;;;26.87;;
15553;SDS011;7878;44.632;10.942;2022-11-20T02:15:36;50.97;;;27.77;;
15553;SDS011;7878;44.632;10.942;2022-11-20T02:18:02;49.90;;;27.23;;
15553;SDS011;7878;44.632;10.942;2022-11-20T02:20:28;48.03;;;28.23;;
15553;SDS011;7878;44.632;10.942;2022-11-20T02:22:55;51.77;;;27.77;;
15553;SDS011;7878;44.632;10.942;2022-11-20T02:25:24;48.17;;;26.70;;
15553;SDS011;7878;44.632;10.942;2022-11-20T02:27:52;47.97;;;28.53;;
15553;SDS011;7878;44.632;10.942;2022-11-20T02:30:18;52.60;;;28.57;;
15553;SDS011;7878;44.632;10.942;2022-11-20T02:32:43;55.40;;;29.00;;
15553;SDS011;7878;44.632;10.942;2022-11-20T02:37:44;48.63;;;27.67;;
15553;SDS011;7878;44.632;10.942;2022-11-20T02:40:12;47.30;;;28.80;;
15553;SDS011;7878;44.632;10.942;2022-11-20T02:42:38;52.73;;;29.43;;
15553;SDS011;7878;44.632;10.942;2022-11-20T02:45:04;47.37;;;28.87;;
15553;SDS011;7878;44.632;10.942;2022-11-20T02:47:30;49.03;;;27.83;;
15553;SDS011;7878;44.632;10.942;2022-11-20T02:49:56;55.80;;;29.67;;
15553;SDS011;7878;44.632;10.942;2022-11-20T02:52:23;51.00;;;29.73;;
15553;SDS011;7878;44.632;10.942;2022-11-20T02:54:49;55.13;;;30.07;;
15553;SDS011;7878;44.632;10.942;2022-11-20T02:57:15;52.40;;;29.77;;
15553;SDS011;7878;44.632;10.942;2022-11-20T02:59:40;53.43;;;29.27;;
15553;SDS011;7878;44.632;10.942;2022-11-20T03:02:06;51.47;;;28.60;;
15553;SDS011;7878;44.632;10.942;2022-11-20T03:04:32;48.17;;;28.20;;
15553;SDS011;7878;44.632;10.942;2022-11-20T03:06:57;55.73;;;30.43;;
15553;SDS011;7878;44.632;10.942;2022-11-20T03:09:23;49.37;;;28.43;;
15553;SDS011;7878;44.632;10.942;2022-11-20T03:11:48;53.87;;;29.43;;
15553;SDS011;7878;44.632;10.942;2022-11-20T03:14:14;56.13;;;32.00;;
15553;SDS011;7878;44.632;10.942;2022-11-20T03:16:40;53.30;;;31.00;;
15553;SDS011;7878;44.632;10.942;2022-11-20T03:19:05;46.67;;;27.63;;
15553;SDS011;7878;44.632;10.942;2022-11-20T03:21:34;53.37;;;30.27;;
15553;SDS011;7878;44.632;10.942;2022-11-20T03:24:00;52.50;;;28.50;;
15553;SDS011;7878;44.632;10.942;2022-11-20T03:26:26;53.90;;;28.73;;
15553;SDS011;7878;44.632;10.942;2022-11-20T03:28:53;59.13;;;29.73;;
15553;SDS011;7878;44.632;10.942;2022-11-20T03:31:25;48.53;;;27.83;;
15553;SDS011;7878;44.632;10.942;2022-11-20T03:33:53;52.67;;;29.53;;
15553;SDS011;7878;44.632;10.942;2022-11-20T03:36:19;51.80;;;29.40;;
15553;SDS011;7878;44.632;10.942;2022-11-20T03:38:45;52.63;;;28.67;;
15553;SDS011;7878;44.632;10.942;2022-11-20T03:41:22;46.97;;;29.10;;
15553;SDS011;7878;44.632;10.942;2022-11-20T03:43:49;54.87;;;28.80;;
15553;SDS011;7878;44.632;10.942;2022-11-20T03:46:22;50.20;;;29.67;;
15553;SDS011;7878;44.632;10.942;2022-11-20T03:48:48;47.50;;;27.90;;
15553;SDS011;7878;44.632;10.942;2022-11-20T03:51:14;49.33;;;28.13;;
15553;SDS011;7878;44.632;10.942;2022-11-20T03:53:48;49.43;;;28.57;;
15553;SDS011;7878;44.632;10.942;2022-11-20T03:56:16;50.17;;;27.90;;
15553;SDS011;7878;44.632;10.942;2022-11-20T03:58:44;49.93;;;29.57;;
15553;SDS011;7878;44.632;10.942;2022-11-20T04:01:10;42.93;;;27.30;;
15553;SDS011;7878;44.632;10.942;2022-11-20T04:03:38;54.33;;;29.73;;
15553;SDS011;7878;44.632;10.942;2022-11-20T04:06:05;47.00;;;28.10;;
15553;SDS011;7878;44.632;10.942;2022-11-20T04:08:32;47.23;;;27.50;;
15553;SDS011;7878;44.632;10.942;2022-11-20T04:13:55;52.27;;;28.10;;
15553;SDS011;7878;44.632;10.942;2022-11-20T04:16:23;50.23;;;28.10;;
15553;SDS011;7878;44.632;10.942;2022-11-20T04:18:53;45.07;;;28.13;;
15553;SDS011;7878;44.632;10.942;2022-11-20T04:21:19;49.20;;;29.60;;
15553;SDS011;7878;44.632;10.942;2022-11-20T04:23:46;48.30;;;28.13;;
15553;SDS011;7878;44.632;10.942;2022-11-20T04:26:12;45.50;;;27.97;;
15553;SDS011;7878;44.632;10.942;2022-11-20T04:28:38;47.57;;;27.67;;
15553;SDS011;7878;44.632;10.942;2022-11-20T04:31:05;44.43;;;26.00;;
15553;SDS011;7878;44.632;10.942;2022-11-20T04:33:36;51.87;;;29.50;;
15553;SDS011;7878;44.632;10.942;2022-11-20T04:36:03;46.00;;;27.90;;
15553;SDS011;7878;44.632;10.942;2022-11-20T04:38:35;52.03;;;28.50;;
15553;SDS011;7878;44.632;10.942;2022-11-20T04:41:02;49.17;;;28.13;;
15553;SDS011;7878;44.632;10.942;2022-11-20T04:43:29;43.60;;;27.47;;
15553;SDS011;7878;44.632;10.942;2022-11-20T04:45:56;43.83;;;27.50;;
15553;SDS011;7878;44.632;10.942;2022-11-20T04:48:23;46.67;;;28.40;;
15553;SDS011;7878;44.632;10.942;2022-11-20T04:50:49;38.60;;;26.67;;
15553;SDS011;7878;44.632;10.942;2022-11-20T04:53:16;45.70;;;26.60;;
15553;SDS011;7878;44.632;10.942;2022-11-20T04:55:41;45.20;;;26.80;;
15553;SDS011;7878;44.632;10.942;2022-11-20T04:58:07;45.13;;;26.47;;
15553;SDS011;7878;44.632;10.942;2022-11-20T05:00:33;43.73;;;26.27;;
15553;SDS011;7878;44.632;10.942;2022-11-20T05:02:59;43.27;;;25.87;;
15553;SDS011;7878;44.632;10.942;2022-11-20T05:05:24;43.67;;;26.27;;
15553;SDS011;7878;44.632;10.942;2022-11-20T05:07:50;42.43;;;26.20;;
15553;SDS011;7878;44.632;10.942;2022-11-20T05:10:16;41.37;;;25.97;;
15553;SDS011;7878;44.632;10.942;2022-11-20T05:12:41;39.63;;;24.83;;
15553;SDS011;7878;44.632;10.942;2022-11-20T05:15:07;43.57;;;25.90;;
15553;SDS011;7878;44.632;10.942;2022-11-20T05:17:33;41.80;;;25.33;;
15553;SDS011;7878;44.632;10.942;2022-11-20T05:19:59;40.90;;;25.90;;
15553;SDS011;7878;44.632;10.942;2022-11-20T05:22:25;41.43;;;25.50;;
15553;SDS011;7878;44.632;10.942;2022-11-20T05:24:50;40.17;;;24.60;;
15553;SDS011;7878;44.632;10.942;2022-11-20T05:27:16;38.67;;;24.40;;
15553;SDS011;7878;44.632;10.942;2022-11-20T05:29:42;43.50;;;24.73;;
15553;SDS011;7878;44.632;10.942;2022-11-20T05:32:07;36.67;;;24.27;;
15553;SDS011;7878;44.632;10.942;2022-11-20T05:34:34;42.83;;;26.23;;
15553;SDS011;7878;44.632;10.942;2022-11-20T05:37:00;40.27;;;25.67;;
15553;SDS011;7878;44.632;10.942;2022-11-20T05:39:27;41.57;;;25.80;;
15553;SDS011;7878;44.632;10.942;2022-11-20T05:41:52;42.47;;;25.63;;
15553;SDS011;7878;44.632;10.942;2022-11-20T05:44:38;36.47;;;22.97;;
15553;SDS011;7878;44.632;10.942;2022-11-20T05:47:04;37.10;;;24.23;;
15553;SDS011;7878;44.632;10.942;2022-11-20T05:49:30;39.90;;;24.87;;
15553;SDS011;7878;44.632;10.942;2022-11-20T05:51:55;36.63;;;22.97;;
15553;SDS011;7878;44.632;10.942;2022-11-20T05:54:21;36.27;;;23.87;;
15553;SDS011;7878;44.632;10.942;2022-11-20T05:56:47;40.80;;;25.03;;
15553;SDS011;7878;44.632;10.942;2022-11-20T05:59:12;41.40;;;25.27;;
15553;SDS011;7878;44.632;10.942;2022-11-20T06:01:38;39.73;;;23.80;;
15553;SDS011;7878;44.632;10.942;2022-11-20T06:04:04;39.90;;;25.10;;
15553;SDS011;7878;44.632;10.942;2022-11-20T06:06:29;39.77;;;25.27;;
15553;SDS011;7878;44.632;10.942;2022-11-20T06:08:55;37.60;;;23.93;;
15553;SDS011;7878;44.632;10.942;2022-11-20T06:11:21;37.10;;;24.83;;
15553;SDS011;7878;44.632;10.942;2022-11-20T06:13:47;36.50;;;24.30;;
15553;SDS011;7878;44.632;10.942;2022-11-20T06:16:14;41.47;;;24.93;;
15553;SDS011;7878;44.632;10.942;2022-11-20T06:18:41;42.17;;;26.17;;
15553;SDS011;7878;44.632;10.942;2022-11-20T06:21:11;39.83;;;25.47;;
15553;SDS011;7878;44.632;10.942;2022-11-20T06:23:39;39.20;;;24.63;;
15553;SDS011;7878;44.632;10.942;2022-11-20T06:26:06;37.43;;;24.23;;
15553;SDS011;7878;44.632;10.942;2022-11-20T06:28:34;39.43;;;23.43;;
15553;SDS011;7878;44.632;10.942;2022-11-20T06:31:00;38.03;;;24.97;;
15553;SDS011;7878;44.632;10.942;2022-11-20T06:33:27;41.20;;;27.10;;
15553;SDS011;7878;44.632;10.942;2022-11-20T06:35:55;44.97;;;28.23;;
15553;SDS011;7878;44.632;10.942;2022-11-20T06:38:21;43.70;;;28.77;;
15553;SDS011;7878;44.632;10.942;2022-11-20T06:40:47;40.73;;;28.03;;
15553;SDS011;7878;44.632;10.942;2022-11-20T06:43:12;43.07;;;29.23;;
15553;SDS011;7878;44.632;10.942;2022-11-20T06:45:38;45.33;;;30.27;;
15553;SDS011;7878;44.632;10.942;2022-11-20T06:48:03;43.60;;;29.93;;
15553;SDS011;7878;44.632;10.942;2022-11-20T06:50:29;42.80;;;29.30;;
15553;SDS011;7878;44.632;10.942;2022-11-20T06:52:55;48.77;;;30.73;;
15553;SDS011;7878;44.632;10.942;2022-11-20T06:55:21;58.83;;;30.93;;
15553;SDS011;7878;44.632;10.942;2022-11-20T06:57:46;41.13;;;30.27;;
15553;SDS011;7878;44.632;10.942;2022-11-20T07:00:12;38.30;;;28.27;;
15553;SDS011;7878;44.632;10.942;2022-11-20T07:02:38;42.20;;;28.53;;
15553;SDS011;7878;44.632;10.942;2022-11-20T07:05:04;41.93;;;28.80;;
15553;SDS011;7878;44.632;10.942;2022-11-20T07:07:30;42.50;;;28.40;;
15553;SDS011;7878;44.632;10.942;2022-11-20T07:09:55;37.77;;;29.77;;
15553;SDS011;7878;44.632;10.942;2022-11-20T07:12:21;42.03;;;30.83;;
15553;SDS011;7878;44.632;10.942;2022-11-20T07:14:46;41.37;;;28.97;;
15553;SDS011;7878;44.632;10.942;2022-11-20T07:17:12;40.53;;;29.63;;
15553;SDS011;7878;44.632;10.942;2022-11-20T07:19:38;40.67;;;29.50;;
15553;SDS011;7878;44.632;10.942;2022-11-20T07:22:04;40.80;;;28.70;;
15553;SDS011;7878;44.632;10.942;2022-11-20T07:24:29;38.97;;;29.10;;
15553;SDS011;7878;44.632;10.942;2022-11-20T07:26:55;36.83;;;28.00;;
15553;SDS011;7878;44.632;10.942;2022-11-20T07:29:20;39.00;;;29.70;;
15553;SDS011;7878;44.632;10.942;2022-11-20T07:31:46;41.47;;;29.27;;
15553;SDS011;7878;44.632;10.942;2022-11-20T07:34:12;45.00;;;29.87;;
15553;SDS011;7878;44.632;10.942;2022-11-20T07:36:37;40.13;;;28.60;;
15553;SDS011;7878;44.632;10.942;2022-11-20T07:39:04;39.73;;;29.53;;
15553;SDS011;7878;44.632;10.942;2022-11-20T07:41:29;36.73;;;29.63;;
15553;SDS011;7878;44.632;10.942;2022-11-20T07:43:56;42.47;;;30.00;;
15553;SDS011;7878;44.632;10.942;2022-11-20T07:46:21;47.93;;;31.70;;
15553;SDS011;7878;44.632;10.942;2022-11-20T07:48:47;45.03;;;30.40;;
15553;SDS011;7878;44.632;10.942;2022-11-20T07:51:13;39.40;;;29.93;;
15553;SDS011;7878;44.632;10.942;2022-11-20T07:53:38;39.33;;;28.30;;
15553;SDS011;7878;44.632;10.942;2022-11-20T07:56:04;43.17;;;28.73;;
15553;SDS011;7878;44.632;10.942;2022-11-20T07:58:30;38.70;;;28.07;;
15553;SDS011;7878;44.632;10.942;2022-11-20T08:01:03;38.67;;;28.43;;
15553;SDS011;7878;44.632;10.942;2022-11-20T08:03:30;39.00;;;26.57;;
15553;SDS011;7878;44.632;10.942;2022-11-20T08:05:58;35.43;;;26.10;;
15553;SDS011;7878;44.632;10.942;2022-11-20T08:08:25;36.17;;;24.70;;
15553;SDS011;7878;44.632;10.942;2022-11-20T08:10:51;37.10;;;25.10;;
15553;SDS011;7878;44.632;10.942;2022-11-20T08:13:17;39.70;;;24.30;;
15553;SDS011;7878;44.632;10.942;2022-11-20T08:16:01;39.10;;;24.03;;
15553;SDS011;7878;44.632;10.942;2022-11-20T08:18:27;37.73;;;24.03;;
15553;SDS011;7878;44.632;10.942;2022-11-20T08:20:53;35.40;;;23.23;;
15553;SDS011;7878;44.632;10.942;2022-11-20T08:23:18;36.47;;;23.50;;
15553;SDS011;7878;44.632;10.942;2022-11-20T08:25:48;36.83;;;25.20;;
15553;SDS011;7878;44.632;10.942;2022-11-20T08:28:14;34.70;;;23.27;;
15553;SDS011;7878;44.632;10.942;2022-11-20T08:30:40;34.30;;;22.17;;
15553;SDS011;7878;44.632;10.942;2022-11-20T08:33:07;38.33;;;23.40;;
15553;SDS011;7878;44.632;10.942;2022-11-20T08:35:36;39.90;;;23.70;;
15553;SDS011;7878;44.632;10.942;2022-11-20T08:38:03;33.60;;;22.80;;
15553;SDS011;7878;44.632;10.942;2022-11-20T08:40:30;37.83;;;25.27;;
15553;SDS011;7878;44.632;10.942;2022-11-20T08:42:56;41.90;;;23.77;;
15553;SDS011;7878;44.632;10.942;2022-11-20T08:45:22;34.60;;;24.60;;
15553;SDS011;7878;44.632;10.942;2022-11-20T08:47:48;35.43;;;25.13;;
15553;SDS011;7878;44.632;10.942;2022-11-20T08:50:14;35.67;;;25.40;;
15553;SDS011;7878;44.632;10.942;2022-11-20T08:52:40;36.47;;;25.27;;
15553;SDS011;7878;44.632;10.942;2022-11-20T08:55:06;40.47;;;27.67;;
15553;SDS011;7878;44.632;10.942;2022-11-20T08:57:33;38.40;;;27.20;;
15553;SDS011;7878;44.632;10.942;2022-11-20T09:00:00;44.03;;;26.77;;
15553;SDS011;7878;44.632;10.942;2022-11-20T09:02:26;40.23;;;26.57;;
15553;SDS011;7878;44.632;10.942;2022-11-20T09:04:52;42.80;;;27.43;;
15553;SDS011;7878;44.632;10.942;2022-11-20T09:07:21;42.07;;;28.30;;
15553;SDS011;7878;44.632;10.942;2022-11-20T09:09:46;38.73;;;27.37;;
15553;SDS011;7878;44.632;10.942;2022-11-20T09:12:12;44.33;;;28.70;;
15553;SDS011;7878;44.632;10.942;2022-11-20T09:14:38;48.27;;;28.30;;
15553;SDS011;7878;44.632;10.942;2022-11-20T09:17:04;41.37;;;28.37;;
15553;SDS011;7878;44.632;10.942;2022-11-20T09:19:30;41.17;;;28.40;;
15553;SDS011;7878;44.632;10.942;2022-11-20T09:21:55;41.30;;;27.77;;
15553;SDS011;7878;44.632;10.942;2022-11-20T09:24:21;41.73;;;27.67;;
15553;SDS011;7878;44.632;10.942;2022-11-20T09:26:46;40.53;;;28.53;;
15553;SDS011;7878;44.632;10.942;2022-11-20T09:29:12;39.63;;;27.47;;
15553;SDS011;7878;44.632;10.942;2022-11-20T09:31:38;44.37;;;28.47;;
15553;SDS011;7878;44.632;10.942;2022-11-20T09:34:04;38.40;;;27.23;;
15553;SDS011;7878;44.632;10.942;2022-11-20T09:36:29;39.93;;;26.50;;
15553;SDS011;7878;44.632;10.942;2022-11-20T09:38:55;42.93;;;27.07;;
15553;SDS011;7878;44.632;10.942;2022-11-20T09:48:55;42.22;;;28.75;;
15553;SDS011;7878;44.632;10.942;2022-11-20T09:52:00;43.65;;;27.20;;
15553;SDS011;7878;44.632;10.942;2022-11-20T09:54:36;41.80;;;27.00;;
15553;SDS011;7878;44.632;10.942;2022-11-20T09:57:21;41.38;;;29.77;;
15553;SDS011;7878;44.632;10.942;2022-11-20T09:59:51;39.60;;;29.33;;
15553;SDS011;7878;44.632;10.942;2022-11-20T10:04:51;40.90;;;28.58;;
15553;SDS011;7878;44.632;10.942;2022-11-20T10:10:14;44.47;;;29.52;;
15553;SDS011;7878;44.632;10.942;2022-11-20T10:15:38;40.67;;;29.70;;
15553;SDS011;7878;44.632;10.942;2022-11-20T10:18:21;40.17;;;28.85;;
15553;SDS011;7878;44.632;10.942;2022-11-20T10:29:53;42.35;;;31.30;;
15553;SDS011;7878;44.632;10.942;2022-11-20T10:33:19;39.00;;;29.38;;
15553;SDS011;7878;44.632;10.942;2022-11-20T10:35:41;38.63;;;30.00;;
15553;SDS011;7878;44.632;10.942;2022-11-20T10:38:18;42.80;;;30.65;;
15553;SDS011;7878;44.632;10.942;2022-11-20T10:40:46;44.08;;;31.17;;
15553;SDS011;7878;44.632;10.942;2022-11-20T10:43:17;39.40;;;30.33;;
15553;SDS011;7878;44.632;10.942;2022-11-20T10:45:58;40.70;;;31.65;;
15553;SDS011;7878;44.632;10.942;2022-11-20T10:48:28;39.25;;;31.60;;
15553;SDS011;7878;44.632;10.942;2022-11-20T10:56:59;40.75;;;31.67;;
15553;SDS011;7878;44.632;10.942;2022-11-20T11:02:54;40.63;;;32.45;;
15553;SDS011;7878;44.632;10.942;2022-11-20T11:05:46;44.95;;;31.60;;
15553;SDS011;7878;44.632;10.942;2022-11-20T11:07:55;43.75;;;33.72;;
15553;SDS011;7878;44.632;10.942;2022-11-20T11:15:46;37.88;;;31.23;;
15553;SDS011;7878;44.632;10.942;2022-11-20T11:18:22;40.42;;;32.95;;
15553;SDS011;7878;44.632;10.942;2022-11-20T11:20:53;42.00;;;31.00;;
15553;SDS011;7878;44.632;10.942;2022-11-20T11:23:38;43.95;;;32.50;;
15553;SDS011;7878;44.632;10.942;2022-11-20T11:26:21;37.35;;;30.98;;
15553;SDS011;7878;44.632;10.942;2022-11-20T11:31:26;41.25;;;31.80;;
15553;SDS011;7878;44.632;10.942;2022-11-20T11:34:03;39.88;;;31.30;;
15553;SDS011;7878;44.632;10.942;2022-11-20T11:36:49;40.63;;;32.17;;
15553;SDS011;7878;44.632;10.942;2022-11-20T11:39:21;41.53;;;32.00;;
15553;SDS011;7878;44.632;10.942;2022-11-20T11:41:47;42.45;;;31.35;;
15553;SDS011;7878;44.632;10.942;2022-11-20T11:47:25;41.38;;;31.38;;
15553;SDS011;7878;44.632;10.942;2022-11-20T11:52:35;41.03;;;32.08;;
15553;SDS011;7878;44.632;10.942;2022-11-20T11:55:07;40.20;;;31.25;;
15553;SDS011;7878;44.632;10.942;2022-11-20T12:00:31;37.15;;;30.00;;
15553;SDS011;7878;44.632;10.942;2022-11-20T12:03:10;38.58;;;30.27;;
15553;SDS011;7878;44.632;10.942;2022-11-20T12:05:42;38.03;;;30.25;;
15553;SDS011;7878;44.632;10.942;2022-11-20T12:16:48;38.75;;;30.63;;
15553;SDS011;7878;44.632;10.942;2022-11-20T12:19:15;42.10;;;29.83;;
15553;SDS011;7878;44.632;10.942;2022-11-20T12:24:32;38.42;;;29.15;;
15553;SDS011;7878;44.632;10.942;2022-11-20T12:30:26;38.55;;;28.63;;
15553;SDS011;7878;44.632;10.942;2022-11-20T12:44:16;36.60;;;28.02;;
15553;SDS011;7878;44.632;10.942;2022-11-20T12:52:56;28.77;;;22.98;;
15553;SDS011;7878;44.632;10.942;2022-11-20T13:04:06;30.42;;;23.90;;
15553;SDS011;7878;44.632;10.942;2022-11-20T13:06:45;31.95;;;23.65;;
15553;SDS011;7878;44.632;10.942;2022-11-20T13:09:12;39.13;;;25.70;;
15553;SDS011;7878;44.632;10.942;2022-11-20T13:11:47;35.40;;;24.77;;
15553;SDS011;7878;44.632;10.942;2022-11-20T13:20:06;34.65;;;25.35;;
15553;SDS011;7878;44.632;10.942;2022-11-20T13:25:21;33.45;;;24.35;;
15553;SDS011;7878;44.632;10.942;2022-11-20T13:28:42;32.83;;;23.98;;
15553;SDS011;7878;44.632;10.942;2022-11-20T13:30:50;33.25;;;23.75;;
15553;SDS011;7878;44.632;10.942;2022-11-20T13:33:33;31.75;;;22.17;;
15553;SDS011;7878;44.632;10.942;2022-11-20T13:36:01;35.58;;;22.60;;
15553;SDS011;7878;44.632;10.942;2022-11-20T13:38:44;32.30;;;24.10;;
15553;SDS011;7878;44.632;10.942;2022-11-20T13:41:22;35.80;;;24.23;;
15553;SDS011;7878;44.632;10.942;2022-11-20T13:47:15;39.42;;;25.63;;
15553;SDS011;7878;44.632;10.942;2022-11-20T13:49:47;34.00;;;24.10;;
15553;SDS011;7878;44.632;10.942;2022-11-20T14:00:21;34.00;;;23.50;;
15553;SDS011;7878;44.632;10.942;2022-11-20T14:02:57;37.92;;;23.95;;
15553;SDS011;7878;44.632;10.942;2022-11-20T14:05:34;33.22;;;23.65;;
15553;SDS011;7878;44.632;10.942;2022-11-20T14:08:05;34.88;;;23.50;;
15553;SDS011;7878;44.632;10.942;2022-11-20T14:10:38;31.92;;;23.13;;
15553;SDS011;7878;44.632;10.942;2022-11-20T14:13:15;33.72;;;22.90;;
15553;SDS011;7878;44.632;10.942;2022-11-20T14:15:44;33.60;;;23.42;;
15553;SDS011;7878;44.632;10.942;2022-11-20T14:18:14;34.50;;;23.52;;
15553;SDS011;7878;44.632;10.942;2022-11-20T14:20:49;32.20;;;22.63;;
15553;SDS011;7878;44.632;10.942;2022-11-20T14:23:23;32.33;;;22.35;;
15553;SDS011;7878;44.632;10.942;2022-11-20T14:25:53;33.60;;;21.92;;
15553;SDS011;7878;44.632;10.942;2022-11-20T14:28:28;31.40;;;21.90;;
15553;SDS011;7878;44.632;10.942;2022-11-20T14:30:56;33.45;;;22.38;;
15553;SDS011;7878;44.632;10.942;2022-11-20T14:33:22;32.97;;;22.48;;
15553;SDS011;7878;44.632;10.942;2022-11-20T14:35:54;39.50;;;24.13;;
15553;SDS011;7878;44.632;10.942;2022-11-20T14:38:22;77.38;;;35.42;;
15553;SDS011;7878;44.632;10.942;2022-11-20T14:40:50;75.13;;;37.22;;
15553;SDS011;7878;44.632;10.942;2022-11-20T14:48:48;46.47;;;28.42;;
15553;SDS011;7878;44.632;10.942;2022-11-20T14:54:09;38.35;;;24.67;;
15553;SDS011;7878;44.632;10.942;2022-11-20T14:56:36;43.42;;;26.48;;
15553;SDS011;7878;44.632;10.942;2022-11-20T14:59:02;43.63;;;27.35;;
15553;SDS011;7878;44.632;10.942;2022-11-20T15:01:28;56.80;;;38.17;;
15553;SDS011;7878;44.632;10.942;2022-11-20T15:03:59;107.85;;;70.03;;
15553;SDS011;7878;44.632;10.942;2022-11-20T15:06:27;32.90;;;21.83;;
15553;SDS011;7878;44.632;10.942;2022-11-20T15:08:54;45.38;;;21.67;;
15553;SDS011;7878;44.632;10.942;2022-11-20T15:11:28;32.50;;;22.20;;
15553;SDS011;7878;44.632;10.942;2022-11-20T15:13:56;33.78;;;20.13;;
15553;SDS011;7878;44.632;10.942;2022-11-20T15:16:23;37.90;;;20.77;;
15553;SDS011;7878;44.632;10.942;2022-11-20T15:18:49;25.85;;;19.35;;
15553;SDS011;7878;44.632;10.942;2022-11-20T15:21:17;29.55;;;20.15;;
15553;SDS011;7878;44.632;10.942;2022-11-20T15:23:44;32.85;;;21.60;;
15553;SDS011;7878;44.632;10.942;2022-11-20T15:26:10;29.15;;;19.20;;
15553;SDS011;7878;44.632;10.942;2022-11-20T15:28:39;34.63;;;20.43;;
15553;SDS011;7878;44.632;10.942;2022-11-20T15:31:12;34.17;;;19.43;;
15553;SDS011;7878;44.632;10.942;2022-11-20T15:33:40;31.67;;;20.00;;
15553;SDS011;7878;44.632;10.942;2022-11-20T15:36:08;30.23;;;20.77;;
15553;SDS011;7878;44.632;10.942;2022-11-20T15:38:34;31.57;;;20.20;;
15553;SDS011;7878;44.632;10.942;2022-11-20T15:41:00;29.87;;;19.70;;
15553;SDS011;7878;44.632;10.942;2022-11-20T15:43:26;34.13;;;21.43;;
15553;SDS011;7878;44.632;10.942;2022-11-20T15:45:55;34.30;;;20.07;;
15553;SDS011;7878;44.632;10.942;2022-11-20T15:48:58;32.97;;;20.33;;
15553;SDS011;7878;44.632;10.942;2022-11-20T15:51:29;28.60;;;19.20;;
15553;SDS011;7878;44.632;10.942;2022-11-20T15:53:57;30.30;;;19.70;;
15553;SDS011;7878;44.632;10.942;2022-11-20T15:56:23;29.63;;;20.40;;
15553;SDS011;7878;44.632;10.942;2022-11-20T15:58:49;38.33;;;20.17;;
15553;SDS011;7878;44.632;10.942;2022-11-20T16:01:16;32.87;;;19.20;;
15553;SDS011;7878;44.632;10.942;2022-11-20T16:03:43;30.37;;;20.10;;
15553;SDS011;7878;44.632;10.942;2022-11-20T16:06:09;38.43;;;21.13;;
15553;SDS011;7878;44.632;10.942;2022-11-20T16:08:35;28.47;;;18.73;;
15553;SDS011;7878;44.632;10.942;2022-11-20T16:11:00;29.57;;;19.70;;
15553;SDS011;7878;44.632;10.942;2022-11-20T16:13:26;33.37;;;19.70;;
15553;SDS011;7878;44.632;10.942;2022-11-20T16:16:44;34.17;;;20.63;;
15553;SDS011;7878;44.632;10.942;2022-11-20T16:19:05;36.43;;;19.73;;
15553;SDS011;7878;44.632;10.942;2022-11-20T16:21:31;47.83;;;30.20;;
15553;SDS011;7878;44.632;10.942;2022-11-20T16:24:01;35.40;;;23.57;;
15553;SDS011;7878;44.632;10.942;2022-11-20T16:26:28;37.57;;;21.30;;
15553;SDS011;7878;44.632;10.942;2022-11-20T16:28:54;35.07;;;18.87;;
15553;SDS011;7878;44.632;10.942;2022-11-20T16:31:20;34.30;;;19.80;;
15553;SDS011;7878;44.632;10.942;2022-11-20T16:33:50;25.77;;;18.53;;
15553;SDS011;7878;44.632;10.942;2022-11-20T16:36:20;36.03;;;19.00;;
15553;SDS011;7878;44.632;10.942;2022-11-20T16:38:51;33.20;;;19.63;;